sensor_id;sensor_type;location;lat;lon;timestamp;P1;durP1;ratioP1;P2;durP2;ratioP2
21769;SDS011;11046;49.558;8.674;2023-12-14T00:02:23;33.67;;;18.57;;
21769;SDS011;11046;49.558;8.674;2023-12-14T00:05:23;33.40;;;18.33;;
21769;SDS011;11046;49.558;8.674;2023-12-14T00:08:24;35.00;;;17.47;;
21769;SDS011;11046;49.558;8.674;2023-12-14T00:11:25;34.10;;;19.10;;
21769;SDS011;11046;49.558;8.674;2023-12-14T00:14:25;30.93;;;17.80;;
21769;SDS011;11046;49.558;8.674;2023-12-14T00:17:26;36.60;;;18.00;;
21769;SDS011;11046;49.558;8.674;2023-12-14T00:20:26;32.70;;;18.30;;
21769;SDS011;11046;49.558;8.674;2023-12-14T00:23:27;35.80;;;19.17;;
21769;SDS011;11046;49.558;8.674;2023-12-14T00:26:28;34.77;;;18.77;;
21769;SDS011;11046;49.558;8.674;2023-12-14T00:29:28;34.10;;;19.20;;
21769;SDS011;11046;49.558;8.674;2023-12-14T00:32:29;32.50;;;18.57;;
21769;SDS011;11046;49.558;8.674;2023-12-14T00:35:29;39.13;;;18.97;;
21769;SDS011;11046;49.558;8.674;2023-12-14T00:38:30;42.83;;;19.03;;
21769;SDS011;11046;49.558;8.674;2023-12-14T00:41:31;36.83;;;18.40;;
21769;SDS011;11046;49.558;8.674;2023-12-14T00:44:31;32.97;;;18.00;;
21769;SDS011;11046;49.558;8.674;2023-12-14T00:47:32;34.23;;;17.17;;
21769;SDS011;11046;49.558;8.674;2023-12-14T00:50:32;32.00;;;17.30;;
21769;SDS011;11046;49.558;8.674;2023-12-14T00:53:33;33.20;;;16.77;;
21769;SDS011;11046;49.558;8.674;2023-12-14T00:56:33;31.67;;;18.07;;
21769;SDS011;11046;49.558;8.674;2023-12-14T00:59:34;32.43;;;17.07;;
21769;SDS011;11046;49.558;8.674;2023-12-14T01:02:35;31.60;;;15.93;;
21769;SDS011;11046;49.558;8.674;2023-12-14T01:05:35;31.23;;;16.13;;
21769;SDS011;11046;49.558;8.674;2023-12-14T01:08:36;31.50;;;17.30;;
21769;SDS011;11046;49.558;8.674;2023-12-14T01:11:36;31.30;;;16.73;;
21769;SDS011;11046;49.558;8.674;2023-12-14T01:14:37;34.60;;;17.17;;
21769;SDS011;11046;49.558;8.674;2023-12-14T01:17:38;37.90;;;18.10;;
21769;SDS011;11046;49.558;8.674;2023-12-14T01:20:38;40.27;;;18.13;;
21769;SDS011;11046;49.558;8.674;2023-12-14T01:23:39;35.27;;;18.27;;
21769;SDS011;11046;49.558;8.674;2023-12-14T01:26:40;35.07;;;18.07;;
21769;SDS011;11046;49.558;8.674;2023-12-14T01:29:40;35.60;;;18.17;;
21769;SDS011;11046;49.558;8.674;2023-12-14T01:32:41;37.07;;;19.13;;
21769;SDS011;11046;49.558;8.674;2023-12-14T01:35:41;35.80;;;18.63;;
21769;SDS011;11046;49.558;8.674;2023-12-14T01:38:42;37.33;;;19.70;;
21769;SDS011;11046;49.558;8.674;2023-12-14T01:41:42;41.33;;;20.53;;
21769;SDS011;11046;49.558;8.674;2023-12-14T01:44:43;39.70;;;20.10;;
21769;SDS011;11046;49.558;8.674;2023-12-14T01:47:44;42.73;;;20.60;;
21769;SDS011;11046;49.558;8.674;2023-12-14T01:50:45;42.73;;;21.67;;
21769;SDS011;11046;49.558;8.674;2023-12-14T01:53:45;41.17;;;20.23;;
21769;SDS011;11046;49.558;8.674;2023-12-14T01:56:46;34.57;;;19.67;;
21769;SDS011;11046;49.558;8.674;2023-12-14T01:59:46;38.40;;;19.03;;
21769;SDS011;11046;49.558;8.674;2023-12-14T02:02:47;39.47;;;19.70;;
21769;SDS011;11046;49.558;8.674;2023-12-14T02:05:48;39.50;;;19.57;;
21769;SDS011;11046;49.558;8.674;2023-12-14T02:08:48;42.30;;;18.77;;
21769;SDS011;11046;49.558;8.674;2023-12-14T02:11:49;41.30;;;19.27;;
21769;SDS011;11046;49.558;8.674;2023-12-14T02:14:49;35.77;;;18.77;;
21769;SDS011;11046;49.558;8.674;2023-12-14T02:17:50;36.80;;;19.33;;
21769;SDS011;11046;49.558;8.674;2023-12-14T02:20:51;38.73;;;19.07;;
21769;SDS011;11046;49.558;8.674;2023-12-14T02:23:52;34.83;;;18.90;;
21769;SDS011;11046;49.558;8.674;2023-12-14T02:26:52;38.67;;;18.17;;
21769;SDS011;11046;49.558;8.674;2023-12-14T02:29:53;36.17;;;18.20;;
21769;SDS011;11046;49.558;8.674;2023-12-14T02:32:53;33.63;;;17.30;;
21769;SDS011;11046;49.558;8.674;2023-12-14T02:35:54;33.37;;;18.30;;
21769;SDS011;11046;49.558;8.674;2023-12-14T02:38:55;34.17;;;18.10;;
21769;SDS011;11046;49.558;8.674;2023-12-14T02:41:55;34.93;;;17.37;;
21769;SDS011;11046;49.558;8.674;2023-12-14T02:44:56;31.70;;;17.60;;
21769;SDS011;11046;49.558;8.674;2023-12-14T02:47:57;33.10;;;17.60;;
21769;SDS011;11046;49.558;8.674;2023-12-14T02:50:57;33.20;;;17.57;;
21769;SDS011;11046;49.558;8.674;2023-12-14T02:54:00;31.53;;;16.93;;
21769;SDS011;11046;49.558;8.674;2023-12-14T02:57:00;33.13;;;16.97;;
21769;SDS011;11046;49.558;8.674;2023-12-14T03:00:01;34.87;;;17.87;;
21769;SDS011;11046;49.558;8.674;2023-12-14T03:03:02;34.60;;;17.60;;
21769;SDS011;11046;49.558;8.674;2023-12-14T03:06:03;35.47;;;17.90;;
21769;SDS011;11046;49.558;8.674;2023-12-14T03:09:04;38.33;;;17.43;;
21769;SDS011;11046;49.558;8.674;2023-12-14T03:12:04;32.37;;;17.33;;
21769;SDS011;11046;49.558;8.674;2023-12-14T03:15:05;38.07;;;16.37;;
21769;SDS011;11046;49.558;8.674;2023-12-14T03:18:06;31.63;;;16.73;;
21769;SDS011;11046;49.558;8.674;2023-12-14T03:21:07;35.80;;;17.53;;
21769;SDS011;11046;49.558;8.674;2023-12-14T03:24:07;31.77;;;17.20;;
21769;SDS011;11046;49.558;8.674;2023-12-14T03:27:09;33.00;;;16.77;;
21769;SDS011;11046;49.558;8.674;2023-12-14T03:30:10;35.03;;;16.90;;
21769;SDS011;11046;49.558;8.674;2023-12-14T03:33:11;35.53;;;17.03;;
21769;SDS011;11046;49.558;8.674;2023-12-14T03:36:11;36.00;;;17.57;;
21769;SDS011;11046;49.558;8.674;2023-12-14T03:39:12;35.70;;;18.13;;
21769;SDS011;11046;49.558;8.674;2023-12-14T03:42:13;38.07;;;18.80;;
21769;SDS011;11046;49.558;8.674;2023-12-14T03:45:13;32.73;;;17.20;;
21769;SDS011;11046;49.558;8.674;2023-12-14T03:48:14;35.00;;;17.27;;
21769;SDS011;11046;49.558;8.674;2023-12-14T03:51:18;34.80;;;16.80;;
21769;SDS011;11046;49.558;8.674;2023-12-14T03:54:19;29.40;;;17.03;;
21769;SDS011;11046;49.558;8.674;2023-12-14T03:57:19;33.33;;;18.57;;
21769;SDS011;11046;49.558;8.674;2023-12-14T04:00:20;33.40;;;17.23;;
21769;SDS011;11046;49.558;8.674;2023-12-14T04:03:21;35.13;;;18.53;;
21769;SDS011;11046;49.558;8.674;2023-12-14T04:06:22;35.10;;;18.57;;
21769;SDS011;11046;49.558;8.674;2023-12-14T04:09:22;34.07;;;17.93;;
21769;SDS011;11046;49.558;8.674;2023-12-14T04:12:23;35.50;;;17.47;;
21769;SDS011;11046;49.558;8.674;2023-12-14T04:15:23;36.63;;;18.23;;
21769;SDS011;11046;49.558;8.674;2023-12-14T04:18:24;38.33;;;17.13;;
21769;SDS011;11046;49.558;8.674;2023-12-14T04:21:24;32.90;;;17.03;;
21769;SDS011;11046;49.558;8.674;2023-12-14T04:24:25;34.90;;;16.60;;
21769;SDS011;11046;49.558;8.674;2023-12-14T04:27:26;30.83;;;14.73;;
21769;SDS011;11046;49.558;8.674;2023-12-14T04:30:28;35.70;;;17.23;;
21769;SDS011;11046;49.558;8.674;2023-12-14T04:33:29;33.77;;;17.53;;
21769;SDS011;11046;49.558;8.674;2023-12-14T04:36:29;32.83;;;16.70;;
21769;SDS011;11046;49.558;8.674;2023-12-14T04:39:30;36.23;;;17.00;;
21769;SDS011;11046;49.558;8.674;2023-12-14T04:42:31;31.00;;;15.73;;
21769;SDS011;11046;49.558;8.674;2023-12-14T04:45:31;34.60;;;15.87;;
21769;SDS011;11046;49.558;8.674;2023-12-14T04:48:32;36.57;;;16.50;;
21769;SDS011;11046;49.558;8.674;2023-12-14T04:51:33;37.27;;;17.70;;
21769;SDS011;11046;49.558;8.674;2023-12-14T04:54:33;39.10;;;18.33;;
21769;SDS011;11046;49.558;8.674;2023-12-14T04:57:37;36.83;;;16.00;;
21769;SDS011;11046;49.558;8.674;2023-12-14T05:00:38;42.80;;;21.33;;
21769;SDS011;11046;49.558;8.674;2023-12-14T05:03:38;43.23;;;21.80;;
21769;SDS011;11046;49.558;8.674;2023-12-14T05:06:39;47.33;;;23.53;;
21769;SDS011;11046;49.558;8.674;2023-12-14T05:09:40;42.10;;;22.17;;
21769;SDS011;11046;49.558;8.674;2023-12-14T05:12:40;41.53;;;22.07;;
21769;SDS011;11046;49.558;8.674;2023-12-14T05:15:41;44.87;;;20.93;;
21769;SDS011;11046;49.558;8.674;2023-12-14T05:18:41;39.23;;;20.13;;
21769;SDS011;11046;49.558;8.674;2023-12-14T05:21:42;39.60;;;21.37;;
21769;SDS011;11046;49.558;8.674;2023-12-14T05:24:45;40.47;;;19.93;;
21769;SDS011;11046;49.558;8.674;2023-12-14T05:27:46;45.67;;;22.83;;
21769;SDS011;11046;49.558;8.674;2023-12-14T05:30:47;47.80;;;22.43;;
21769;SDS011;11046;49.558;8.674;2023-12-14T05:33:48;47.50;;;21.33;;
21769;SDS011;11046;49.558;8.674;2023-12-14T05:36:48;40.67;;;21.73;;
21769;SDS011;11046;49.558;8.674;2023-12-14T05:39:49;36.97;;;20.37;;
21769;SDS011;11046;49.558;8.674;2023-12-14T05:42:49;38.73;;;20.30;;
21769;SDS011;11046;49.558;8.674;2023-12-14T05:45:50;41.90;;;19.07;;
21769;SDS011;11046;49.558;8.674;2023-12-14T05:48:51;38.47;;;20.10;;
21769;SDS011;11046;49.558;8.674;2023-12-14T05:51:51;37.40;;;19.57;;
21769;SDS011;11046;49.558;8.674;2023-12-14T05:54:52;37.80;;;18.67;;
21769;SDS011;11046;49.558;8.674;2023-12-14T05:57:52;39.27;;;19.37;;
21769;SDS011;11046;49.558;8.674;2023-12-14T06:00:55;44.57;;;20.10;;
21769;SDS011;11046;49.558;8.674;2023-12-14T06:03:56;42.63;;;19.27;;
21769;SDS011;11046;49.558;8.674;2023-12-14T06:06:57;40.43;;;18.13;;
21769;SDS011;11046;49.558;8.674;2023-12-14T06:09:58;36.33;;;17.00;;
21769;SDS011;11046;49.558;8.674;2023-12-14T06:12:59;30.97;;;15.03;;
21769;SDS011;11046;49.558;8.674;2023-12-14T06:15:59;35.27;;;16.23;;
21769;SDS011;11046;49.558;8.674;2023-12-14T06:19:00;32.93;;;15.50;;
21769;SDS011;11046;49.558;8.674;2023-12-14T06:22:01;33.23;;;14.97;;
21769;SDS011;11046;49.558;8.674;2023-12-14T06:25:01;35.93;;;16.13;;
21769;SDS011;11046;49.558;8.674;2023-12-14T06:28:03;37.93;;;18.40;;
21769;SDS011;11046;49.558;8.674;2023-12-14T06:31:03;39.23;;;18.03;;
21769;SDS011;11046;49.558;8.674;2023-12-14T06:34:05;32.60;;;15.40;;
21769;SDS011;11046;49.558;8.674;2023-12-14T06:37:06;33.10;;;15.00;;
21769;SDS011;11046;49.558;8.674;2023-12-14T06:40:06;36.07;;;15.63;;
21769;SDS011;11046;49.558;8.674;2023-12-14T06:43:08;32.07;;;15.10;;
21769;SDS011;11046;49.558;8.674;2023-12-14T06:46:09;34.73;;;16.77;;
21769;SDS011;11046;49.558;8.674;2023-12-14T06:49:10;43.60;;;16.67;;
21769;SDS011;11046;49.558;8.674;2023-12-14T06:52:10;36.23;;;16.50;;
21769;SDS011;11046;49.558;8.674;2023-12-14T06:55:11;39.03;;;16.57;;
21769;SDS011;11046;49.558;8.674;2023-12-14T06:58:12;41.80;;;16.83;;
21769;SDS011;11046;49.558;8.674;2023-12-14T07:01:13;38.33;;;16.47;;
21769;SDS011;11046;49.558;8.674;2023-12-14T07:04:14;44.23;;;18.43;;
21769;SDS011;11046;49.558;8.674;2023-12-14T07:07:15;35.07;;;16.77;;
21769;SDS011;11046;49.558;8.674;2023-12-14T07:10:16;40.83;;;17.23;;
21769;SDS011;11046;49.558;8.674;2023-12-14T07:13:16;44.53;;;18.40;;
21769;SDS011;11046;49.558;8.674;2023-12-14T07:16:17;37.73;;;16.63;;
21769;SDS011;11046;49.558;8.674;2023-12-14T07:19:17;42.40;;;17.50;;
21769;SDS011;11046;49.558;8.674;2023-12-14T07:22:18;41.53;;;16.97;;
21769;SDS011;11046;49.558;8.674;2023-12-14T07:25:19;38.43;;;16.77;;
21769;SDS011;11046;49.558;8.674;2023-12-14T07:28:19;40.90;;;17.97;;
21769;SDS011;11046;49.558;8.674;2023-12-14T07:31:20;38.33;;;16.90;;
21769;SDS011;11046;49.558;8.674;2023-12-14T07:34:20;54.00;;;21.70;;
21769;SDS011;11046;49.558;8.674;2023-12-14T07:37:21;50.60;;;21.23;;
21769;SDS011;11046;49.558;8.674;2023-12-14T07:40:23;38.63;;;17.47;;
21769;SDS011;11046;49.558;8.674;2023-12-14T07:43:24;36.60;;;17.37;;
21769;SDS011;11046;49.558;8.674;2023-12-14T07:46:24;41.37;;;19.00;;
21769;SDS011;11046;49.558;8.674;2023-12-14T07:49:25;43.83;;;18.80;;
21769;SDS011;11046;49.558;8.674;2023-12-14T07:52:26;39.13;;;17.07;;
21769;SDS011;11046;49.558;8.674;2023-12-14T07:55:26;41.37;;;17.07;;
21769;SDS011;11046;49.558;8.674;2023-12-14T07:58:28;37.07;;;17.07;;
21769;SDS011;11046;49.558;8.674;2023-12-14T08:01:28;38.90;;;16.33;;
21769;SDS011;11046;49.558;8.674;2023-12-14T08:04:29;36.30;;;17.00;;
21769;SDS011;11046;49.558;8.674;2023-12-14T08:07:30;37.50;;;15.80;;
21769;SDS011;11046;49.558;8.674;2023-12-14T08:10:31;32.43;;;16.03;;
21769;SDS011;11046;49.558;8.674;2023-12-14T08:13:32;34.63;;;14.93;;
21769;SDS011;11046;49.558;8.674;2023-12-14T08:16:32;44.73;;;16.47;;
21769;SDS011;11046;49.558;8.674;2023-12-14T08:19:33;32.27;;;14.87;;
21769;SDS011;11046;49.558;8.674;2023-12-14T08:22:34;32.80;;;15.00;;
21769;SDS011;11046;49.558;8.674;2023-12-14T08:25:35;38.70;;;17.27;;
21769;SDS011;11046;49.558;8.674;2023-12-14T08:28:35;38.60;;;17.70;;
21769;SDS011;11046;49.558;8.674;2023-12-14T08:31:36;40.60;;;17.10;;
21769;SDS011;11046;49.558;8.674;2023-12-14T08:34:37;48.43;;;18.37;;
21769;SDS011;11046;49.558;8.674;2023-12-14T08:37:37;41.63;;;17.70;;
21769;SDS011;11046;49.558;8.674;2023-12-14T08:40:38;37.97;;;17.77;;
21769;SDS011;11046;49.558;8.674;2023-12-14T08:43:39;37.20;;;17.63;;
21769;SDS011;11046;49.558;8.674;2023-12-14T08:46:43;38.23;;;17.87;;
21769;SDS011;11046;49.558;8.674;2023-12-14T08:49:45;36.73;;;16.50;;
21769;SDS011;11046;49.558;8.674;2023-12-14T08:52:46;33.30;;;16.60;;
21769;SDS011;11046;49.558;8.674;2023-12-14T08:55:47;36.27;;;15.87;;
21769;SDS011;11046;49.558;8.674;2023-12-14T08:58:48;31.47;;;15.30;;
21769;SDS011;11046;49.558;8.674;2023-12-14T09:01:48;33.00;;;15.67;;
21769;SDS011;11046;49.558;8.674;2023-12-14T09:04:49;34.30;;;16.47;;
21769;SDS011;11046;49.558;8.674;2023-12-14T09:07:50;33.70;;;16.17;;
21769;SDS011;11046;49.558;8.674;2023-12-14T09:10:54;32.90;;;16.07;;
21769;SDS011;11046;49.558;8.674;2023-12-14T09:13:55;34.20;;;15.83;;
21769;SDS011;11046;49.558;8.674;2023-12-14T09:16:56;33.60;;;15.63;;
21769;SDS011;11046;49.558;8.674;2023-12-14T09:19:56;35.10;;;16.53;;
21769;SDS011;11046;49.558;8.674;2023-12-14T09:22:57;35.17;;;16.23;;
21769;SDS011;11046;49.558;8.674;2023-12-14T09:25:58;31.33;;;14.27;;
21769;SDS011;11046;49.558;8.674;2023-12-14T09:28:59;36.27;;;15.73;;
21769;SDS011;11046;49.558;8.674;2023-12-14T09:31:59;35.90;;;14.77;;
21769;SDS011;11046;49.558;8.674;2023-12-14T09:35:00;37.97;;;16.53;;
21769;SDS011;11046;49.558;8.674;2023-12-14T09:38:01;36.77;;;15.63;;
21769;SDS011;11046;49.558;8.674;2023-12-14T09:41:03;31.30;;;15.07;;
21769;SDS011;11046;49.558;8.674;2023-12-14T09:44:05;31.40;;;15.30;;
21769;SDS011;11046;49.558;8.674;2023-12-14T09:47:06;32.73;;;15.10;;
21769;SDS011;11046;49.558;8.674;2023-12-14T09:50:07;35.90;;;15.00;;
21769;SDS011;11046;49.558;8.674;2023-12-14T09:53:08;30.77;;;14.57;;
21769;SDS011;11046;49.558;8.674;2023-12-14T09:56:09;31.33;;;14.07;;
21769;SDS011;11046;49.558;8.674;2023-12-14T09:59:10;25.73;;;13.03;;
21769;SDS011;11046;49.558;8.674;2023-12-14T10:02:11;28.27;;;14.07;;
21769;SDS011;11046;49.558;8.674;2023-12-14T10:05:12;26.97;;;13.90;;
21769;SDS011;11046;49.558;8.674;2023-12-14T10:08:13;21.17;;;10.70;;
21769;SDS011;11046;49.558;8.674;2023-12-14T10:11:15;20.40;;;10.67;;
21769;SDS011;11046;49.558;8.674;2023-12-14T10:14:23;27.50;;;11.00;;
21769;SDS011;11046;49.558;8.674;2023-12-14T10:17:25;20.20;;;10.67;;
21769;SDS011;11046;49.558;8.674;2023-12-14T10:20:31;28.27;;;12.83;;
21769;SDS011;11046;49.558;8.674;2023-12-14T10:23:33;24.00;;;11.47;;
21769;SDS011;11046;49.558;8.674;2023-12-14T10:26:35;23.20;;;11.87;;
21769;SDS011;11046;49.558;8.674;2023-12-14T10:29:39;32.13;;;13.20;;
21769;SDS011;11046;49.558;8.674;2023-12-14T10:32:40;22.33;;;12.23;;
21769;SDS011;11046;49.558;8.674;2023-12-14T10:35:41;26.27;;;12.60;;
21769;SDS011;11046;49.558;8.674;2023-12-14T10:38:43;27.40;;;12.60;;
21769;SDS011;11046;49.558;8.674;2023-12-14T10:41:48;30.70;;;12.57;;
21769;SDS011;11046;49.558;8.674;2023-12-14T10:44:51;28.10;;;12.97;;
21769;SDS011;11046;49.558;8.674;2023-12-14T10:47:53;20.70;;;11.47;;
21769;SDS011;11046;49.558;8.674;2023-12-14T10:50:54;29.43;;;12.03;;
21769;SDS011;11046;49.558;8.674;2023-12-14T10:53:59;26.57;;;12.50;;
21769;SDS011;11046;49.558;8.674;2023-12-14T10:56:59;26.57;;;12.53;;
21769;SDS011;11046;49.558;8.674;2023-12-14T11:00:01;22.63;;;11.90;;
21769;SDS011;11046;49.558;8.674;2023-12-14T11:03:05;26.83;;;12.77;;
21769;SDS011;11046;49.558;8.674;2023-12-14T11:06:15;29.97;;;12.13;;
21769;SDS011;11046;49.558;8.674;2023-12-14T11:09:22;23.47;;;12.00;;
21769;SDS011;11046;49.558;8.674;2023-12-14T11:12:23;22.33;;;10.63;;
21769;SDS011;11046;49.558;8.674;2023-12-14T11:15:24;22.00;;;11.27;;
21769;SDS011;11046;49.558;8.674;2023-12-14T11:18:25;27.17;;;12.07;;
21769;SDS011;11046;49.558;8.674;2023-12-14T11:21:26;27.27;;;12.87;;
21769;SDS011;11046;49.558;8.674;2023-12-14T11:24:27;29.93;;;13.07;;
21769;SDS011;11046;49.558;8.674;2023-12-14T11:27:30;25.37;;;13.10;;
21769;SDS011;11046;49.558;8.674;2023-12-14T11:30:31;25.20;;;12.37;;
21769;SDS011;11046;49.558;8.674;2023-12-14T11:33:35;21.10;;;11.40;;
21769;SDS011;11046;49.558;8.674;2023-12-14T11:36:36;24.80;;;12.07;;
21769;SDS011;11046;49.558;8.674;2023-12-14T11:39:39;26.60;;;11.87;;
21769;SDS011;11046;49.558;8.674;2023-12-14T11:42:40;23.13;;;11.60;;
21769;SDS011;11046;49.558;8.674;2023-12-14T11:45:41;28.10;;;11.43;;
21769;SDS011;11046;49.558;8.674;2023-12-14T11:48:45;25.50;;;12.13;;
21769;SDS011;11046;49.558;8.674;2023-12-14T11:51:46;23.60;;;11.77;;
21769;SDS011;11046;49.558;8.674;2023-12-14T11:54:47;23.30;;;12.20;;
21769;SDS011;11046;49.558;8.674;2023-12-14T11:57:48;27.17;;;11.50;;
21769;SDS011;11046;49.558;8.674;2023-12-14T12:00:49;23.47;;;11.67;;
21769;SDS011;11046;49.558;8.674;2023-12-14T12:03:50;22.43;;;11.43;;
21769;SDS011;11046;49.558;8.674;2023-12-14T12:06:58;22.93;;;12.03;;
21769;SDS011;11046;49.558;8.674;2023-12-14T12:10:08;25.10;;;13.00;;
21769;SDS011;11046;49.558;8.674;2023-12-14T12:13:14;18.77;;;9.47;;
21769;SDS011;11046;49.558;8.674;2023-12-14T12:16:19;18.37;;;8.83;;
21769;SDS011;11046;49.558;8.674;2023-12-14T12:19:20;18.23;;;8.63;;
21769;SDS011;11046;49.558;8.674;2023-12-14T12:22:20;18.70;;;9.07;;
21769;SDS011;11046;49.558;8.674;2023-12-14T12:25:21;16.97;;;8.30;;
21769;SDS011;11046;49.558;8.674;2023-12-14T12:28:23;17.80;;;8.17;;
21769;SDS011;11046;49.558;8.674;2023-12-14T12:31:23;17.20;;;8.90;;
21769;SDS011;11046;49.558;8.674;2023-12-14T12:34:24;16.67;;;8.33;;
21769;SDS011;11046;49.558;8.674;2023-12-14T12:37:25;15.97;;;8.33;;
21769;SDS011;11046;49.558;8.674;2023-12-14T12:40:25;17.17;;;8.17;;
21769;SDS011;11046;49.558;8.674;2023-12-14T12:43:26;20.23;;;8.50;;
21769;SDS011;11046;49.558;8.674;2023-12-14T12:46:27;17.53;;;8.40;;
21769;SDS011;11046;49.558;8.674;2023-12-14T12:49:27;16.27;;;7.17;;
21769;SDS011;11046;49.558;8.674;2023-12-14T12:52:28;15.97;;;7.73;;
21769;SDS011;11046;49.558;8.674;2023-12-14T12:55:29;14.27;;;7.57;;
21769;SDS011;11046;49.558;8.674;2023-12-14T12:58:30;15.80;;;7.33;;
21769;SDS011;11046;49.558;8.674;2023-12-14T13:01:30;16.00;;;7.00;;
21769;SDS011;11046;49.558;8.674;2023-12-14T13:04:31;15.23;;;7.93;;
21769;SDS011;11046;49.558;8.674;2023-12-14T13:07:31;17.37;;;7.13;;
21769;SDS011;11046;49.558;8.674;2023-12-14T13:10:32;13.17;;;6.67;;
21769;SDS011;11046;49.558;8.674;2023-12-14T13:13:33;13.90;;;7.03;;
21769;SDS011;11046;49.558;8.674;2023-12-14T13:16:34;14.87;;;7.33;;
21769;SDS011;11046;49.558;8.674;2023-12-14T13:19:35;18.57;;;7.07;;
21769;SDS011;11046;49.558;8.674;2023-12-14T13:22:35;12.67;;;6.30;;
21769;SDS011;11046;49.558;8.674;2023-12-14T13:25:36;14.80;;;6.77;;
21769;SDS011;11046;49.558;8.674;2023-12-14T13:28:36;11.70;;;6.07;;
21769;SDS011;11046;49.558;8.674;2023-12-14T13:31:37;13.23;;;6.73;;
21769;SDS011;11046;49.558;8.674;2023-12-14T13:34:38;11.27;;;5.33;;
21769;SDS011;11046;49.558;8.674;2023-12-14T13:37:39;12.83;;;6.57;;
21769;SDS011;11046;49.558;8.674;2023-12-14T13:40:39;14.73;;;6.37;;
21769;SDS011;11046;49.558;8.674;2023-12-14T13:43:40;14.10;;;6.30;;
21769;SDS011;11046;49.558;8.674;2023-12-14T13:46:40;14.27;;;6.90;;
21769;SDS011;11046;49.558;8.674;2023-12-14T13:49:41;11.23;;;6.00;;
21769;SDS011;11046;49.558;8.674;2023-12-14T13:52:42;10.43;;;5.80;;
21769;SDS011;11046;49.558;8.674;2023-12-14T13:55:43;14.23;;;6.43;;
21769;SDS011;11046;49.558;8.674;2023-12-14T13:58:44;12.67;;;6.30;;
21769;SDS011;11046;49.558;8.674;2023-12-14T14:01:44;17.00;;;7.63;;
21769;SDS011;11046;49.558;8.674;2023-12-14T14:04:45;11.50;;;6.57;;
21769;SDS011;11046;49.558;8.674;2023-12-14T14:07:46;13.27;;;7.07;;
21769;SDS011;11046;49.558;8.674;2023-12-14T14:10:47;17.10;;;8.00;;
21769;SDS011;11046;49.558;8.674;2023-12-14T14:13:48;17.40;;;8.37;;
21769;SDS011;11046;49.558;8.674;2023-12-14T14:16:49;17.67;;;8.17;;
21769;SDS011;11046;49.558;8.674;2023-12-14T14:19:50;17.53;;;8.10;;
21769;SDS011;11046;49.558;8.674;2023-12-14T14:22:50;21.33;;;8.43;;
21769;SDS011;11046;49.558;8.674;2023-12-14T14:25:51;18.90;;;8.27;;
21769;SDS011;11046;49.558;8.674;2023-12-14T14:28:55;18.50;;;8.27;;
21769;SDS011;11046;49.558;8.674;2023-12-14T14:31:59;19.27;;;8.63;;
21769;SDS011;11046;49.558;8.674;2023-12-14T14:35:00;16.83;;;7.43;;
21769;SDS011;11046;49.558;8.674;2023-12-14T14:38:01;18.10;;;7.30;;
21769;SDS011;11046;49.558;8.674;2023-12-14T14:41:02;15.03;;;7.20;;
21769;SDS011;11046;49.558;8.674;2023-12-14T14:44:03;15.03;;;7.00;;
21769;SDS011;11046;49.558;8.674;2023-12-14T14:47:05;13.50;;;7.27;;
21769;SDS011;11046;49.558;8.674;2023-12-14T14:50:06;13.93;;;6.67;;
21769;SDS011;11046;49.558;8.674;2023-12-14T14:53:07;15.20;;;6.57;;
21769;SDS011;11046;49.558;8.674;2023-12-14T14:56:11;17.63;;;6.53;;
21769;SDS011;11046;49.558;8.674;2023-12-14T14:59:11;16.73;;;6.93;;
21769;SDS011;11046;49.558;8.674;2023-12-14T15:02:15;12.97;;;6.17;;
21769;SDS011;11046;49.558;8.674;2023-12-14T15:05:16;14.43;;;6.20;;
21769;SDS011;11046;49.558;8.674;2023-12-14T15:08:17;17.43;;;6.30;;
21769;SDS011;11046;49.558;8.674;2023-12-14T15:11:17;14.43;;;6.57;;
21769;SDS011;11046;49.558;8.674;2023-12-14T15:14:18;15.17;;;7.80;;
21769;SDS011;11046;49.558;8.674;2023-12-14T15:17:19;18.70;;;7.63;;
21769;SDS011;11046;49.558;8.674;2023-12-14T15:20:20;14.27;;;6.80;;
21769;SDS011;11046;49.558;8.674;2023-12-14T15:23:22;15.27;;;6.53;;
21769;SDS011;11046;49.558;8.674;2023-12-14T15:26:22;13.80;;;6.00;;
21769;SDS011;11046;49.558;8.674;2023-12-14T15:29:23;14.63;;;6.20;;
21769;SDS011;11046;49.558;8.674;2023-12-14T15:32:24;12.87;;;6.03;;
21769;SDS011;11046;49.558;8.674;2023-12-14T15:35:24;14.17;;;6.00;;
21769;SDS011;11046;49.558;8.674;2023-12-14T15:38:25;12.53;;;6.23;;
21769;SDS011;11046;49.558;8.674;2023-12-14T15:41:28;14.57;;;6.50;;
21769;SDS011;11046;49.558;8.674;2023-12-14T15:44:29;13.40;;;6.77;;
21769;SDS011;11046;49.558;8.674;2023-12-14T15:47:29;16.07;;;6.70;;
21769;SDS011;11046;49.558;8.674;2023-12-14T15:50:30;16.83;;;7.47;;
21769;SDS011;11046;49.558;8.674;2023-12-14T15:53:31;19.20;;;8.53;;
21769;SDS011;11046;49.558;8.674;2023-12-14T15:56:33;18.37;;;8.70;;
21769;SDS011;11046;49.558;8.674;2023-12-14T15:59:34;25.30;;;11.63;;
21769;SDS011;11046;49.558;8.674;2023-12-14T16:02:34;31.80;;;15.80;;
21769;SDS011;11046;49.558;8.674;2023-12-14T16:05:35;33.03;;;16.47;;
21769;SDS011;11046;49.558;8.674;2023-12-14T16:08:36;30.33;;;13.90;;
21769;SDS011;11046;49.558;8.674;2023-12-14T16:11:36;24.70;;;9.53;;
21769;SDS011;11046;49.558;8.674;2023-12-14T16:14:37;30.23;;;12.23;;
21769;SDS011;11046;49.558;8.674;2023-12-14T16:17:38;26.67;;;10.53;;
21769;SDS011;11046;49.558;8.674;2023-12-14T16:20:38;22.33;;;10.17;;
21769;SDS011;11046;49.558;8.674;2023-12-14T16:23:39;21.67;;;9.90;;
21769;SDS011;11046;49.558;8.674;2023-12-14T16:26:40;21.17;;;10.37;;
21769;SDS011;11046;49.558;8.674;2023-12-14T16:29:42;20.57;;;9.33;;
21769;SDS011;11046;49.558;8.674;2023-12-14T16:32:45;19.07;;;8.67;;
21769;SDS011;11046;49.558;8.674;2023-12-14T16:35:46;18.70;;;8.20;;
21769;SDS011;11046;49.558;8.674;2023-12-14T16:38:47;17.27;;;8.53;;
21769;SDS011;11046;49.558;8.674;2023-12-14T16:41:48;18.93;;;9.03;;
21769;SDS011;11046;49.558;8.674;2023-12-14T16:44:48;21.20;;;9.00;;
21769;SDS011;11046;49.558;8.674;2023-12-14T16:47:49;62.57;;;22.13;;
21769;SDS011;11046;49.558;8.674;2023-12-14T16:50:50;43.70;;;16.73;;
21769;SDS011;11046;49.558;8.674;2023-12-14T16:53:53;38.20;;;14.77;;
21769;SDS011;11046;49.558;8.674;2023-12-14T16:56:55;19.37;;;8.00;;
21769;SDS011;11046;49.558;8.674;2023-12-14T16:59:56;13.83;;;7.00;;
21769;SDS011;11046;49.558;8.674;2023-12-14T17:02:56;14.83;;;7.80;;
21769;SDS011;11046;49.558;8.674;2023-12-14T17:05:57;12.87;;;6.53;;
21769;SDS011;11046;49.558;8.674;2023-12-14T17:08:58;11.90;;;6.20;;
21769;SDS011;11046;49.558;8.674;2023-12-14T17:11:59;11.33;;;5.27;;
21769;SDS011;11046;49.558;8.674;2023-12-14T17:14:59;11.50;;;5.30;;
21769;SDS011;11046;49.558;8.674;2023-12-14T17:18:00;9.60;;;4.30;;
21769;SDS011;11046;49.558;8.674;2023-12-14T17:21:01;9.33;;;4.80;;
21769;SDS011;11046;49.558;8.674;2023-12-14T17:24:01;6.97;;;3.90;;
21769;SDS011;11046;49.558;8.674;2023-12-14T17:27:04;6.13;;;3.50;;
21769;SDS011;11046;49.558;8.674;2023-12-14T17:30:04;10.03;;;4.77;;
21769;SDS011;11046;49.558;8.674;2023-12-14T17:33:07;5.67;;;3.50;;
21769;SDS011;11046;49.558;8.674;2023-12-14T17:36:11;6.83;;;4.10;;
21769;SDS011;11046;49.558;8.674;2023-12-14T17:39:12;10.73;;;4.10;;
21769;SDS011;11046;49.558;8.674;2023-12-14T17:42:13;8.40;;;4.30;;
21769;SDS011;11046;49.558;8.674;2023-12-14T17:45:13;10.00;;;4.97;;